Aérodrome :
LOGIN :

S'inscrire | Disclaimer

   EN    FR    IT 

 










Légende :    VFR   VFR Marginal   IFR   IFR Intensif   IFR Très Intensif
Visi : 
Plafond : 
>= 8 km
>= 3000ft
5 à 8 km
1000 à 3000 ft
1500m à 5 km
500 à 1000 ft
800 à 1500m
200 à 500 ft
< 800m
< 200 ft
Symboles :   Orages  Brouillard  Fortes neiges  Fortes précipitations  Vent > 20 kt
SIGMETs :   Divers  Orages  Givrage  Turbulence  Onde Orograph.  Cendres Volcan.






- Altitude de l'aérodrome : 62 ft
- Code IATA : ARH


ULAA - Talagi

DERNIER METAR :
  • 031230Z 21002MPS 150V260 9999 -SHSNRA SCT008CB BKN020 00/M01 Q1030 R26/520250 NOSIG RMK QFE771/1028

METARs EXPIRÉS :
  • 031200Z 22003MPS 150V270 9999 -SNRA OVC011 01/M01 Q1030 R26/520250 NOSIG RMK QFE771/1028
  • 031130Z 22003MPS 170V290 9999 OVC013 01/M01 Q1030 R26/520250 NOSIG RMK QFE771/1028
  • 031100Z 22003MPS 170V260 9999 BKN014 01/M01 Q1030 R26/590239 NOSIG RMK QFE771/1028
  • 031030Z 23003MPS 170V270 9999 BKN014 01/M01 Q1030 R26/590239 NOSIG RMK QFE771/1028
  • 031000Z 23003MPS 160V280 9999 BKN014 01/M01 Q1030 R26/590239 NOSIG RMK QFE771/1028

TAF TAF ULAA
Valide du 03 à 12h jusqu'au 04 à 12h UTC


031100Z 0312/0412 22003G09MPS 9999 BKN016
TEMPO 0312/0318 18003MPS 1000 -SHSN BR BKN004 BKN011CB



MET'MAP, la Météo Aéronautique d'un coup d'oeil ! - Copyright ORBIFLY Décembre 2007 - Disclaimer

ORBIFLY MET'MAP TEAM :

Programmation & Développement : Alexandra Zaïnal
Sur une idée originale de : Baudouin d'Aumeries
Assistance à la programmation : Marc-Olivier Méhu
Soutien technique & logistique : Manuel Goepfert

Contact : metmap@orbifly.com




SOURCES & CREDITS :

   NOAA